Aérodrome :
LOGIN :

S'inscrire | Disclaimer

   EN    FR    IT 

 










Légende :    VFR   VFR Marginal   IFR   IFR Intensif   IFR Très Intensif
Visi : 
Plafond : 
>= 8 km
>= 3000ft
5 à 8 km
1000 à 3000 ft
1500m à 5 km
500 à 1000 ft
800 à 1500m
200 à 500 ft
< 800m
< 200 ft
Symboles :   Orages  Brouillard  Fortes neiges  Fortes précipitations  Vent > 20 kt
SIGMETs :   Divers  Orages  Givrage  Turbulence  Onde Orograph.  Cendres Volcan.






- Altitude de l'aérodrome : 245 ft
- Code IATA : BIQ


LFBZ - Biarritz

DERNIER METAR :
  • 110200Z AUTO 14003KT CAVOK 09/06 Q1018 NOSIG

METARs EXPIRÉS :
  • 110130Z AUTO 15004KT CAVOK 09/05 Q1019 NOSIG
  • 110100Z AUTO 15004KT CAVOK 09/06 Q1019 NOSIG
  • 110030Z AUTO 17003KT CAVOK 09/06 Q1019 NOSIG
  • 110000Z AUTO 15004KT CAVOK 11/04 Q1020 NOSIG
  • 102330Z AUTO 18003KT CAVOK 11/05 Q1020 NOSIG

TAF TAF LFBZ
Valide du 11 à 00h jusqu'au 12 à 00h UTC


102300Z 1100/1124 17005KT 9999 BKN030
BECMG 1104/1106 26015G25KT
TEMPO 1106/1112 30015G30KT 3000 RA BKN005
TEMPO 1112/1120 28020G35KT 3000 SHRA BKN020TCU
PROB30
TEMPO 1117/1120 28025G45KT TSRA BKN010 BKN020CB



MET'MAP, la Météo Aéronautique d'un coup d'oeil ! - Copyright ORBIFLY Décembre 2007 - Disclaimer

ORBIFLY MET'MAP TEAM :

Programmation & Développement : Alexandra Zaïnal
Sur une idée originale de : Baudouin d'Aumeries
Assistance à la programmation : Marc-Olivier Méhu
Soutien technique & logistique : Manuel Goepfert

Contact : metmap@orbifly.com




SOURCES & CREDITS :

   NOAA